createdAt,value
2023-05-15T00:00:42.010Z,3.42
2023-05-15T00:01:43.838Z,3.78
2023-05-15T00:02:45.865Z,5.25
2023-05-15T00:03:48.360Z,4.22
2023-05-15T00:04:50.581Z,4.45
2023-05-15T00:05:52.571Z,3.60
2023-05-15T00:06:54.447Z,3.58
2023-05-15T00:07:56.498Z,5.05
2023-05-15T00:08:58.458Z,4.57
2023-05-15T00:10:00.722Z,4.32
2023-05-15T00:11:02.486Z,3.70
2023-05-15T00:12:04.665Z,3.30
2023-05-15T00:13:06.503Z,4.18
2023-05-15T00:14:08.300Z,5.30
2023-05-15T00:15:10.696Z,4.25
2023-05-15T00:16:12.674Z,3.80
2023-05-15T00:17:14.639Z,3.97
2023-05-15T00:18:16.437Z,3.70
2023-05-15T00:19:18.335Z,3.72
2023-05-15T00:20:20.608Z,3.97
2023-05-15T00:21:22.394Z,3.65
2023-05-15T00:22:24.380Z,3.83
2023-05-15T00:23:26.216Z,3.90
2023-05-15T00:24:28.056Z,3.95
2023-05-15T00:25:29.915Z,3.92
2023-05-15T00:26:31.760Z,4.32
2023-05-15T00:27:33.637Z,5.03
2023-05-15T00:28:38.490Z,4.05
2023-05-15T00:29:40.460Z,4.20
2023-05-15T00:30:42.235Z,3.90
2023-05-15T00:31:44.192Z,4.43
2023-05-15T00:32:46.098Z,4.63
2023-05-15T00:33:48.069Z,4.88
2023-05-15T00:34:49.836Z,4.43
2023-05-15T00:35:51.787Z,4.20
2023-05-15T00:36:53.607Z,3.90
2023-05-15T00:37:55.464Z,4.43
2023-05-15T00:38:57.669Z,3.97
2023-05-15T00:39:59.594Z,3.90
2023-05-15T00:41:06.523Z,7.00
2023-05-15T00:42:09.235Z,4.22
2023-05-15T00:43:12.374Z,4.22
2023-05-15T00:44:16.921Z,4.68
2023-05-15T00:45:22.005Z,4.97
2023-05-15T00:46:26.434Z,4.53
2023-05-15T00:47:29.065Z,4.05
2023-05-15T00:48:31.965Z,4.20
2023-05-15T00:49:35.669Z,4.60
2023-05-15T00:50:41.562Z,4.32
2023-05-15T00:51:43.956Z,5.00
2023-05-15T00:52:46.148Z,4.25
2023-05-15T00:53:48.067Z,4.63
2023-05-15T00:54:50.234Z,4.20
2023-05-15T00:55:53.072Z,4.82
2023-05-15T00:56:58.222Z,4.43
2023-05-15T00:58:01.526Z,4.32
2023-05-15T00:59:04.793Z,4.78
2023-05-15T01:00:10.501Z,5.25
2023-05-15T01:01:14.940Z,7.57
2023-05-15T01:02:18.515Z,5.43
2023-05-15T01:03:20.827Z,6.00
2023-05-15T01:04:22.925Z,5.07
2023-05-15T01:05:25.176Z,5.18
2023-05-15T01:06:27.190Z,5.30
2023-05-15T01:07:34.878Z,5.00
2023-05-15T01:08:45.980Z,4.78
2023-05-15T01:09:50.451Z,5.00
2023-05-15T01:10:52.993Z,6.28
2023-05-15T01:11:57.718Z,4.55
2023-05-15T01:13:02.617Z,5.55
2023-05-15T01:14:06.345Z,5.85
2023-05-15T01:15:08.532Z,4.53
2023-05-15T01:16:10.938Z,5.70
2023-05-15T01:17:12.842Z,4.90
2023-05-15T01:18:15.374Z,6.10
2023-05-15T01:19:17.701Z,4.80
2023-05-15T01:20:22.665Z,4.82
2023-05-15T01:22:08.428Z,4.80
2023-05-15T01:23:34.706Z,4.75
2023-05-15T01:25:00.989Z,4.78
2023-05-15T01:26:02.972Z,5.55
2023-05-15T01:27:13.794Z,5.65
2023-05-15T01:28:22.354Z,4.57
2023-05-15T01:29:50.300Z,5.32
2023-05-15T01:30:55.473Z,5.72
2023-05-15T01:32:24.319Z,5.28
2023-05-15T01:33:34.393Z,5.20
2023-05-15T01:34:46.127Z,5.20
2023-05-15T01:36:00.176Z,5.88
2023-05-15T01:37:04.371Z,5.88
2023-05-15T01:38:33.511Z,5.00
2023-05-15T01:39:37.084Z,5.15
2023-05-15T01:40:39.308Z,5.00
2023-05-15T01:41:55.314Z,5.70
2023-05-15T01:43:06.106Z,4.75
2023-05-15T01:44:14.556Z,6.63
2023-05-15T01:45:18.561Z,5.97
2023-05-15T01:46:23.384Z,5.53
2023-05-15T01:47:33.458Z,5.30
2023-05-15T01:48:37.981Z,5.07
2023-05-15T01:49:42.189Z,5.40
2023-05-15T01:50:45.941Z,5.30
2023-05-15T01:51:53.094Z,5.53
2023-05-15T01:52:58.515Z,5.97
2023-05-15T01:54:02.973Z,5.85
2023-05-15T01:55:07.411Z,5.82
2023-05-15T01:56:14.238Z,5.28
2023-05-15T01:57:17.244Z,5.45
2023-05-15T01:58:20.961Z,5.15
2023-05-15T01:59:24.683Z,5.40
2023-05-15T02:00:26.506Z,5.53
2023-05-15T02:01:30.074Z,5.45
2023-05-15T02:02:32.821Z,5.20
2023-05-15T02:03:36.414Z,5.50
2023-05-15T02:04:39.798Z,5.30
2023-05-15T02:05:42.588Z,5.38
2023-05-15T02:06:44.810Z,5.40
2023-05-15T02:07:48.033Z,5.40
2023-05-15T02:08:51.600Z,5.70
2023-05-15T02:09:56.764Z,5.30
2023-05-15T02:11:02.986Z,5.35
2023-05-15T02:12:06.717Z,5.00
2023-05-15T02:13:10.440Z,5.40
2023-05-15T02:14:13.069Z,5.72
2023-05-15T02:15:17.052Z,5.25
2023-05-15T02:16:21.884Z,5.85
2023-05-15T02:17:24.009Z,5.13
2023-05-15T02:18:26.116Z,5.50
2023-05-15T02:19:27.977Z,5.75
2023-05-15T02:20:29.787Z,5.53
2023-05-15T02:21:31.572Z,6.00
2023-05-15T02:22:33.452Z,5.38
2023-05-15T02:23:35.389Z,5.68
2023-05-15T02:24:37.247Z,5.00
2023-05-15T02:25:44.642Z,5.22
2023-05-15T02:27:00.682Z,5.63
2023-05-15T02:28:09.589Z,6.32
2023-05-15T02:29:11.307Z,5.85
2023-05-15T02:30:41.361Z,6.30
2023-05-15T02:32:04.175Z,5.75
2023-05-15T02:33:14.877Z,5.72
2023-05-15T02:34:39.593Z,5.97
2023-05-15T02:36:06.735Z,5.20
2023-05-15T02:37:21.112Z,6.38
2023-05-15T02:38:38.716Z,5.72
2023-05-15T02:39:43.815Z,5.47
2023-05-15T02:40:48.370Z,5.28
2023-05-15T02:41:52.396Z,6.10
2023-05-15T02:42:55.081Z,6.38
2023-05-15T02:43:57.163Z,5.97
2023-05-15T02:45:00.698Z,5.82
2023-05-15T02:46:07.202Z,7.10
2023-05-15T02:47:10.241Z,6.20
2023-05-15T02:48:12.999Z,5.10
2023-05-15T02:49:15.565Z,6.47
2023-05-15T02:50:18.613Z,5.90
2023-05-15T02:51:21.240Z,6.97
2023-05-15T02:52:24.831Z,5.65
2023-05-15T02:53:26.857Z,6.03
2023-05-15T02:54:28.624Z,6.53
2023-05-15T02:55:31.194Z,5.88
2023-05-15T02:56:33.060Z,5.88
2023-05-15T02:57:34.902Z,6.05
2023-05-15T02:58:37.931Z,5.85
2023-05-15T02:59:39.849Z,5.78
2023-05-15T03:00:41.725Z,5.32
2023-05-15T03:01:43.912Z,6.50
2023-05-15T03:02:45.934Z,5.03
2023-05-15T03:03:47.817Z,6.05
2023-05-15T03:04:49.744Z,6.00
2023-05-15T03:05:51.610Z,5.90
2023-05-15T03:06:53.587Z,5.78
2023-05-15T03:07:55.736Z,6.18
2023-05-15T03:08:57.510Z,5.78
2023-05-15T03:09:59.281Z,5.82
2023-05-15T03:11:01.280Z,6.85
2023-05-15T03:12:03.360Z,5.93
2023-05-15T03:13:05.177Z,6.30
2023-05-15T03:14:06.967Z,6.13
2023-05-15T03:15:09.113Z,6.40
2023-05-15T03:16:11.382Z,5.95
2023-05-15T03:17:13.323Z,6.38
2023-05-15T03:18:17.237Z,6.40
2023-05-15T03:19:20.475Z,10.07
2023-05-15T03:20:22.333Z,8.32
2023-05-15T03:21:24.116Z,9.00
2023-05-15T03:22:25.992Z,6.40
2023-05-15T03:23:27.829Z,7.00
2023-05-15T03:24:29.671Z,6.38
2023-05-15T03:25:31.541Z,6.70
2023-05-15T03:26:33.368Z,6.85
2023-05-15T03:27:35.294Z,6.60
2023-05-15T03:28:37.036Z,6.85
2023-05-15T03:29:39.000Z,6.45
2023-05-15T03:30:44.425Z,5.95
2023-05-15T03:31:46.248Z,7.18
2023-05-15T03:32:48.096Z,6.72
2023-05-15T03:33:50.738Z,6.97
2023-05-15T03:34:52.533Z,6.70
2023-05-15T03:35:54.369Z,7.10
2023-05-15T03:36:56.437Z,6.57
2023-05-15T03:37:58.387Z,6.20
2023-05-15T03:39:00.262Z,7.05
2023-05-15T03:40:02.027Z,6.50
2023-05-15T03:41:03.803Z,6.75
2023-05-15T03:42:07.553Z,5.90
2023-05-15T03:43:09.370Z,6.28
2023-05-15T03:44:11.166Z,6.65
2023-05-15T03:45:15.133Z,6.82
2023-05-15T03:46:16.965Z,9.93
2023-05-15T03:47:18.849Z,8.38
2023-05-15T03:48:20.694Z,7.03
2023-05-15T03:49:22.480Z,7.25
2023-05-15T03:50:24.332Z,7.70
2023-05-15T03:51:26.180Z,7.97
2023-05-15T03:52:28.672Z,6.45
2023-05-15T03:53:30.534Z,6.80
2023-05-15T03:54:32.424Z,7.40
2023-05-15T03:55:34.318Z,6.53
2023-05-15T03:56:36.155Z,6.90
2023-05-15T03:57:38.051Z,6.55
2023-05-15T03:58:39.864Z,6.03
2023-05-15T03:59:41.753Z,6.45
2023-05-15T04:00:44.145Z,5.70
2023-05-15T04:02:02.807Z,6.47
2023-05-15T04:03:06.047Z,6.97
2023-05-15T04:04:07.898Z,6.60
2023-05-15T04:05:10.022Z,7.13
2023-05-15T04:06:11.833Z,6.47
2023-05-15T04:07:13.647Z,6.43
2023-05-15T04:08:15.853Z,7.13
2023-05-15T04:09:17.711Z,7.30
2023-05-15T04:10:19.787Z,7.43
2023-05-15T04:11:23.126Z,6.32
2023-05-15T04:12:28.166Z,6.88
2023-05-15T04:13:29.925Z,11.52
2023-05-15T04:14:31.735Z,8.05
2023-05-15T04:15:33.703Z,6.95
2023-05-15T04:16:35.587Z,6.57
2023-05-15T04:17:37.609Z,6.28
2023-05-15T04:18:39.443Z,6.25
2023-05-15T04:19:43.051Z,6.82
2023-05-15T04:20:45.193Z,6.43
2023-05-15T04:21:46.967Z,6.38
2023-05-15T04:22:49.042Z,6.68
2023-05-15T04:23:50.787Z,8.63
2023-05-15T04:24:52.687Z,7.10
2023-05-15T04:25:55.021Z,6.75
2023-05-15T04:26:56.889Z,6.80
2023-05-15T04:27:58.677Z,6.20
2023-05-15T04:29:04.377Z,6.32
2023-05-15T04:30:08.984Z,6.80
2023-05-15T04:31:10.960Z,7.07
2023-05-15T04:32:12.914Z,6.45
2023-05-15T04:33:14.882Z,6.80
2023-05-15T04:34:17.048Z,7.80
2023-05-15T04:35:19.167Z,6.05
2023-05-15T04:36:21.161Z,7.93
2023-05-15T04:37:22.905Z,6.43
2023-05-15T04:38:24.795Z,6.20
2023-05-15T04:39:26.575Z,6.70
2023-05-15T04:40:28.600Z,7.10
2023-05-15T04:41:30.475Z,6.20
2023-05-15T04:42:32.245Z,7.63
2023-05-15T04:43:34.006Z,6.00
2023-05-15T04:44:35.971Z,6.80
2023-05-15T04:45:37.841Z,9.07
2023-05-15T04:46:39.887Z,7.68
2023-05-15T04:47:41.880Z,8.40
2023-05-15T04:48:43.992Z,6.00
2023-05-15T04:49:47.790Z,8.38
2023-05-15T04:50:49.747Z,8.63
2023-05-15T04:51:51.507Z,6.47
2023-05-15T04:52:53.366Z,6.63
2023-05-15T04:53:55.168Z,7.35
2023-05-15T04:54:56.993Z,6.50
2023-05-15T04:55:59.120Z,7.45
2023-05-15T04:57:01.369Z,6.82
2023-05-15T04:58:03.423Z,7.57
2023-05-15T04:59:05.201Z,7.45
2023-05-15T05:00:12.080Z,7.53
2023-05-15T05:01:13.918Z,7.18
2023-05-15T05:02:15.798Z,7.57
2023-05-15T05:03:17.732Z,8.55
2023-05-15T05:04:19.724Z,7.30
2023-05-15T05:05:21.514Z,7.80
2023-05-15T05:06:24.212Z,9.00
2023-05-15T05:07:25.987Z,8.73
2023-05-15T05:08:27.761Z,7.28
2023-05-15T05:09:29.562Z,6.68
2023-05-15T05:10:31.371Z,7.65
2023-05-15T05:11:33.126Z,10.75
2023-05-15T05:12:34.917Z,7.28
2023-05-15T05:13:36.820Z,7.05
2023-05-15T05:14:40.773Z,8.95
2023-05-15T05:15:42.641Z,14.02
2023-05-15T05:16:45.721Z,9.02
2023-05-15T05:17:47.525Z,12.27
2023-05-15T05:18:49.585Z,7.10
2023-05-15T05:19:51.362Z,8.10
2023-05-15T05:21:00.559Z,7.63
2023-05-15T05:22:05.275Z,11.18
2023-05-15T05:23:07.272Z,7.28
2023-05-15T05:24:09.099Z,9.68
2023-05-15T05:25:11.107Z,10.30
2023-05-15T05:26:12.947Z,9.52
2023-05-15T05:27:14.763Z,8.45
2023-05-15T05:28:16.693Z,12.85
2023-05-15T05:29:18.482Z,10.13
2023-05-15T05:30:20.855Z,9.02
2023-05-15T05:31:23.126Z,7.85
2023-05-15T05:32:25.228Z,9.98
2023-05-15T05:33:27.173Z,10.70
2023-05-15T05:34:29.202Z,9.27
2023-05-15T05:35:31.102Z,9.75
2023-05-15T05:36:32.963Z,8.45
2023-05-15T05:37:34.875Z,8.30
2023-05-15T05:38:37.101Z,15.75
2023-05-15T05:39:38.891Z,10.30
2023-05-15T05:40:40.789Z,11.82
2023-05-15T05:41:43.196Z,9.90
2023-05-15T05:42:44.947Z,8.38
2023-05-15T05:43:46.697Z,8.05
2023-05-15T05:44:48.438Z,10.80
2023-05-15T05:45:50.409Z,10.55
2023-05-15T05:46:52.840Z,11.38
2023-05-15T05:47:57.966Z,13.57
2023-05-15T05:49:00.044Z,8.52
2023-05-15T05:50:01.963Z,9.77
2023-05-15T05:51:04.178Z,11.88
2023-05-15T05:52:08.079Z,10.60
2023-05-15T05:53:09.934Z,8.88
2023-05-15T05:54:11.792Z,8.15
2023-05-15T05:55:13.725Z,11.70
2023-05-15T05:56:16.037Z,8.73
2023-05-15T05:57:17.884Z,8.05
2023-05-15T05:58:25.497Z,9.40
2023-05-15T05:59:29.225Z,8.38
2023-05-15T06:00:31.210Z,8.30
2023-05-15T06:01:33.235Z,10.70
2023-05-15T06:02:35.924Z,8.80
2023-05-15T06:03:39.282Z,8.38
2023-05-15T06:04:41.403Z,10.63
2023-05-15T06:05:43.242Z,11.23
2023-05-15T06:06:45.308Z,8.85
2023-05-15T06:07:47.910Z,8.18
2023-05-15T06:08:49.731Z,7.82
2023-05-15T06:09:51.493Z,13.07
2023-05-15T06:10:53.260Z,11.18
2023-05-15T06:11:55.020Z,11.82
2023-05-15T06:12:56.922Z,12.20
2023-05-15T06:13:58.757Z,11.80
2023-05-15T06:15:00.619Z,11.10
2023-05-15T06:16:02.414Z,10.40
2023-05-15T06:17:04.979Z,9.70
2023-05-15T06:18:07.004Z,9.70
2023-05-15T06:19:09.206Z,11.98
2023-05-15T06:20:12.105Z,9.85
2023-05-15T06:21:13.904Z,11.02
2023-05-15T06:22:15.720Z,10.93
2023-05-15T06:23:17.516Z,11.48
2023-05-15T06:24:19.276Z,13.65
2023-05-15T06:25:21.227Z,14.68
2023-05-15T06:26:23.111Z,15.27
2023-05-15T06:27:26.517Z,15.52
2023-05-15T06:28:28.509Z,12.63
2023-05-15T06:29:30.279Z,15.90
2023-05-15T06:30:32.111Z,15.38
2023-05-15T06:31:33.991Z,19.10
2023-05-15T06:32:36.007Z,15.43
2023-05-15T06:33:37.822Z,15.63
2023-05-15T06:34:39.602Z,15.32
2023-05-15T06:35:41.454Z,11.60
2023-05-15T06:36:43.415Z,17.48
2023-05-15T06:37:50.147Z,15.40
2023-05-15T06:38:51.997Z,10.27
2023-05-15T06:39:53.792Z,13.65
2023-05-15T06:40:55.980Z,10.25
2023-05-15T06:42:01.332Z,8.57
2023-05-15T06:43:04.673Z,8.35
2023-05-15T06:44:06.448Z,8.50
2023-05-15T06:45:09.099Z,11.52
2023-05-15T06:46:10.958Z,8.32
2023-05-15T06:47:12.864Z,9.18
2023-05-15T06:48:14.735Z,8.43
2023-05-15T06:49:16.527Z,7.13
2023-05-15T06:50:18.317Z,7.50
2023-05-15T06:51:20.310Z,8.05
2023-05-15T06:52:22.133Z,6.55
2023-05-15T06:53:23.960Z,8.02
2023-05-15T06:54:25.931Z,5.82
2023-05-15T06:55:27.985Z,6.63
2023-05-15T06:56:29.840Z,6.40
2023-05-15T06:57:31.632Z,7.07
2023-05-15T06:58:33.417Z,5.85
2023-05-15T06:59:35.828Z,6.07
2023-05-15T07:00:37.670Z,5.72
2023-05-15T07:01:39.619Z,6.55
2023-05-15T07:02:41.433Z,5.65
2023-05-15T07:03:43.327Z,5.45
2023-05-15T07:04:45.418Z,6.20
2023-05-15T07:05:47.246Z,8.13
2023-05-15T07:06:49.032Z,5.75
2023-05-15T07:07:50.964Z,5.03
2023-05-15T07:08:53.009Z,4.47
2023-05-15T07:09:54.781Z,6.32
2023-05-15T07:10:56.748Z,4.60
2023-05-15T07:11:58.515Z,4.57
2023-05-15T07:13:00.359Z,6.72
2023-05-15T07:14:02.411Z,5.05
2023-05-15T07:15:05.538Z,4.07
2023-05-15T07:16:07.837Z,4.20
2023-05-15T07:17:09.764Z,5.13
2023-05-15T07:18:11.766Z,3.63
2023-05-15T07:19:13.969Z,4.50
2023-05-15T07:20:15.862Z,3.72
2023-05-15T07:21:17.704Z,3.80
2023-05-15T07:22:19.742Z,5.05
2023-05-15T07:23:21.599Z,4.43
2023-05-15T07:24:23.393Z,4.45
2023-05-15T07:25:26.081Z,4.68
2023-05-15T07:26:36.396Z,4.63
2023-05-15T07:27:42.709Z,4.53
2023-05-15T07:28:44.590Z,4.63
2023-05-15T07:29:46.392Z,4.35
2023-05-15T07:30:48.562Z,6.00
2023-05-15T07:31:50.495Z,3.38
2023-05-15T07:32:52.392Z,3.55
2023-05-15T07:33:54.204Z,4.35
2023-05-15T07:34:55.986Z,3.38
2023-05-15T07:35:57.814Z,4.20
2023-05-15T07:36:59.617Z,3.95
2023-05-15T07:38:01.536Z,6.30
2023-05-15T07:39:03.722Z,3.85
2023-05-15T07:40:06.451Z,3.17
2023-05-15T07:41:08.971Z,3.28
2023-05-15T07:42:10.922Z,3.28
2023-05-15T07:43:12.702Z,4.25
2023-05-15T07:44:14.462Z,5.18
2023-05-15T07:45:16.454Z,6.35
2023-05-15T07:46:18.476Z,3.72
2023-05-15T07:47:20.329Z,4.35
2023-05-15T07:48:22.655Z,3.67
2023-05-15T07:49:24.544Z,5.38
2023-05-15T07:50:26.572Z,2.70
2023-05-15T07:51:29.057Z,4.13
2023-05-15T07:52:30.815Z,4.38
2023-05-15T07:53:33.295Z,4.13
2023-05-15T07:54:35.126Z,5.28
2023-05-15T07:55:37.379Z,2.75
2023-05-15T07:56:39.225Z,3.67
2023-05-15T07:57:41.030Z,4.40
2023-05-15T07:58:42.812Z,6.32
2023-05-15T07:59:44.558Z,4.68
2023-05-15T08:00:46.414Z,4.22
2023-05-15T08:01:48.227Z,3.15
2023-05-15T08:02:50.198Z,5.30
2023-05-15T08:03:52.220Z,3.95
2023-05-15T08:04:54.026Z,3.40
2023-05-15T08:05:55.949Z,3.35
2023-05-15T08:06:57.817Z,3.92
2023-05-15T08:08:00.807Z,4.18
2023-05-15T08:09:03.169Z,4.95
2023-05-15T08:10:06.418Z,4.22
2023-05-15T08:11:08.289Z,3.50
2023-05-15T08:12:21.386Z,3.70
2023-05-15T08:13:23.346Z,4.25
2023-05-15T08:14:25.216Z,4.95
2023-05-15T08:15:27.225Z,3.60
2023-05-15T08:16:29.550Z,3.90
2023-05-15T08:17:31.464Z,3.83
2023-05-15T08:18:33.348Z,3.97
2023-05-15T08:19:35.123Z,3.05
2023-05-15T08:20:38.164Z,3.42
2023-05-15T08:21:40.937Z,3.28
2023-05-15T08:22:42.729Z,3.55
2023-05-15T08:23:44.775Z,4.57
2023-05-15T08:24:46.664Z,4.00
2023-05-15T08:25:48.445Z,6.80
2023-05-15T08:26:50.324Z,3.45
2023-05-15T08:27:52.122Z,5.82
2023-05-15T08:28:53.926Z,3.72
2023-05-15T08:29:55.810Z,4.13
2023-05-15T08:30:57.647Z,6.55
2023-05-15T08:31:59.450Z,8.60
2023-05-15T08:33:01.314Z,5.10
2023-05-15T08:34:03.105Z,5.20
2023-05-15T08:35:05.268Z,6.00
2023-05-15T08:36:08.078Z,4.10
2023-05-15T08:37:09.878Z,4.60
2023-05-15T08:38:12.014Z,3.15
2023-05-15T08:39:13.774Z,3.63
2023-05-15T08:40:15.662Z,5.78
2023-05-15T08:41:40.931Z,3.50
2023-05-15T08:42:56.382Z,3.05
2023-05-15T08:43:59.745Z,3.78
2023-05-15T08:45:01.680Z,4.55
2023-05-15T08:46:04.160Z,2.95
2023-05-15T08:47:06.911Z,3.75
2023-05-15T08:48:13.728Z,4.85
2023-05-15T08:49:43.786Z,3.88
2023-05-15T08:50:46.909Z,3.60
2023-05-15T08:51:48.924Z,3.47
2023-05-15T08:52:52.042Z,6.07
2023-05-15T08:53:53.999Z,2.75
2023-05-15T08:54:56.384Z,4.32
2023-05-15T08:55:58.468Z,3.58
2023-05-15T08:57:00.692Z,3.25
2023-05-15T08:58:02.771Z,2.75
2023-05-15T08:59:04.616Z,3.90
2023-05-15T09:00:12.151Z,3.40
2023-05-15T09:01:15.758Z,3.17
2023-05-15T09:02:18.418Z,2.55
2023-05-15T09:03:23.045Z,2.63
2023-05-15T09:04:24.947Z,3.42
2023-05-15T09:05:28.635Z,2.83
2023-05-15T09:06:32.866Z,3.95
2023-05-15T09:07:35.343Z,2.83
2023-05-15T09:08:38.234Z,3.75
2023-05-15T09:09:41.088Z,3.85
2023-05-15T09:10:43.365Z,2.88
2023-05-15T09:11:46.360Z,3.63
2023-05-15T09:12:51.037Z,5.13
2023-05-15T09:13:53.678Z,2.53
2023-05-15T09:15:16.032Z,2.78
2023-05-15T09:16:17.981Z,3.85
2023-05-15T09:17:19.859Z,3.17
2023-05-15T09:18:22.373Z,2.70
2023-05-15T09:19:24.328Z,3.30
2023-05-15T09:20:32.126Z,3.25
2023-05-15T09:21:34.522Z,4.93
2023-05-15T09:22:36.821Z,3.63
2023-05-15T09:23:38.596Z,2.22
2023-05-15T09:24:40.394Z,3.63
2023-05-15T09:25:44.858Z,3.55
2023-05-15T09:27:01.376Z,2.90
2023-05-15T09:28:03.280Z,4.65
2023-05-15T09:29:05.125Z,3.40
2023-05-15T09:30:10.609Z,2.30
2023-05-15T09:31:12.618Z,3.10
2023-05-15T09:32:15.657Z,2.50
2023-05-15T09:33:17.628Z,3.78
2023-05-15T09:34:19.437Z,3.28
2023-05-15T09:35:29.881Z,3.72
2023-05-15T09:36:32.626Z,2.50
2023-05-15T09:37:34.772Z,4.63
2023-05-15T09:38:43.495Z,2.60
2023-05-15T09:39:45.293Z,3.22
2023-05-15T09:40:47.150Z,3.55
2023-05-15T09:41:48.956Z,2.67
2023-05-15T09:42:53.850Z,2.78
2023-05-15T09:43:57.055Z,3.83
2023-05-15T09:44:58.994Z,3.47
2023-05-15T09:46:01.198Z,2.88
2023-05-15T09:47:05.744Z,2.22
2023-05-15T09:48:08.422Z,2.90
2023-05-15T09:49:11.129Z,3.28
2023-05-15T09:50:13.073Z,3.55
2023-05-15T09:51:19.838Z,3.00
2023-05-15T09:52:23.338Z,3.22
2023-05-15T09:53:25.581Z,2.70
2023-05-15T09:54:28.153Z,3.90
2023-05-15T09:55:33.259Z,2.88
2023-05-15T09:56:35.331Z,2.90
2023-05-15T09:57:37.955Z,2.58
2023-05-15T09:58:52.453Z,3.13
2023-05-15T09:59:54.243Z,2.95
2023-05-15T10:00:59.508Z,4.00
2023-05-15T10:02:01.473Z,2.70
2023-05-15T10:03:04.866Z,2.88
2023-05-15T10:04:06.763Z,2.38
2023-05-15T10:05:08.875Z,2.75
2023-05-15T10:06:18.578Z,4.22
2023-05-15T10:07:30.148Z,4.78
2023-05-15T10:08:32.215Z,2.53
2023-05-15T10:09:34.040Z,4.20
2023-05-15T10:10:35.851Z,2.67
2023-05-15T10:11:39.909Z,2.30
2023-05-15T10:12:41.828Z,2.53
2023-05-15T10:13:43.761Z,3.28
2023-05-15T10:14:47.274Z,2.88
2023-05-15T10:15:49.884Z,3.55
2023-05-15T10:16:52.526Z,3.85
2023-05-15T10:17:54.643Z,2.70
2023-05-15T10:18:57.806Z,2.42
2023-05-15T10:20:00.912Z,2.58
2023-05-15T10:21:04.475Z,2.88
2023-05-15T10:22:07.748Z,3.65
2023-05-15T10:23:10.817Z,2.90
2023-05-15T10:24:13.789Z,3.03
2023-05-15T10:25:30.853Z,2.90
2023-05-15T10:26:40.781Z,2.72
2023-05-15T10:27:43.321Z,2.70
2023-05-15T10:28:46.631Z,2.50
2023-05-15T10:29:49.744Z,2.30
2023-05-15T10:30:53.243Z,2.47
2023-05-15T10:31:55.640Z,3.05
2023-05-15T10:32:59.150Z,3.60
2023-05-15T10:34:01.800Z,2.97
2023-05-15T10:35:04.230Z,3.25
2023-05-15T10:36:07.425Z,2.80
2023-05-15T10:37:11.106Z,2.45
2023-05-15T10:38:13.770Z,3.13
2023-05-15T10:39:16.719Z,2.75
2023-05-15T10:40:19.222Z,3.22
2023-05-15T10:41:22.373Z,3.13
2023-05-15T10:42:26.819Z,5.18
2023-05-15T10:43:28.991Z,4.30
2023-05-15T10:44:30.804Z,2.05
2023-05-15T10:45:33.504Z,2.90
2023-05-15T10:46:36.915Z,2.72
2023-05-15T10:47:40.807Z,2.75
2023-05-15T10:48:42.833Z,3.63
2023-05-15T10:49:44.643Z,2.53
2023-05-15T10:50:48.713Z,6.22
2023-05-15T10:51:53.052Z,2.60
2023-05-15T10:52:55.961Z,3.63
2023-05-15T10:53:58.180Z,3.30
2023-05-15T10:55:00.705Z,3.20
2023-05-15T10:56:02.789Z,2.38
2023-05-15T10:57:05.465Z,2.40
2023-05-15T10:58:10.656Z,2.28
2023-05-15T10:59:12.474Z,2.55
2023-05-15T11:00:24.078Z,2.72
2023-05-15T11:01:35.049Z,2.70
2023-05-15T11:02:40.004Z,2.55
2023-05-15T11:03:49.527Z,2.55
2023-05-15T11:05:00.357Z,2.47
2023-05-15T11:06:13.590Z,3.45
2023-05-15T11:07:17.131Z,2.88
2023-05-15T11:08:21.488Z,3.92
2023-05-15T11:09:27.755Z,2.97
2023-05-15T11:10:29.807Z,4.05
2023-05-15T11:11:53.345Z,2.95
2023-05-15T11:12:59.039Z,2.67
2023-05-15T11:14:08.032Z,3.00
2023-05-15T11:15:09.778Z,3.17
2023-05-15T11:16:12.231Z,3.22
2023-05-15T11:17:16.684Z,4.00
2023-05-15T11:18:20.362Z,2.65
2023-05-15T11:19:22.941Z,5.35
2023-05-15T11:20:42.395Z,3.15
2023-05-15T11:21:47.227Z,2.85
2023-05-15T11:22:59.898Z,3.13
2023-05-15T11:24:05.425Z,3.50
2023-05-15T11:25:09.339Z,3.75
2023-05-15T11:26:13.452Z,3.47
2023-05-15T11:27:20.829Z,4.00
2023-05-15T11:28:24.219Z,3.03
2023-05-15T11:29:26.088Z,4.78
2023-05-15T11:30:41.252Z,2.83
2023-05-15T11:31:43.175Z,3.10
2023-05-15T11:32:44.978Z,5.40
2023-05-15T11:33:52.403Z,2.97
2023-05-15T11:35:01.101Z,4.22
2023-05-15T11:36:05.323Z,3.33
2023-05-15T11:37:17.123Z,3.88
2023-05-15T11:38:24.811Z,3.35
2023-05-15T11:39:27.704Z,4.53
2023-05-15T11:40:44.456Z,2.92
2023-05-15T11:41:46.272Z,3.10
2023-05-15T11:43:06.371Z,3.15
2023-05-15T11:44:09.122Z,5.05
2023-05-15T11:45:11.431Z,3.63
2023-05-15T11:46:14.582Z,3.80
2023-05-15T11:47:17.323Z,3.10
2023-05-15T11:48:19.820Z,3.05
2023-05-15T11:49:22.852Z,4.28
2023-05-15T11:50:25.499Z,4.22
2023-05-15T11:51:27.835Z,3.00
2023-05-15T11:52:31.008Z,3.67
2023-05-15T11:53:33.641Z,3.45
2023-05-15T11:54:35.574Z,3.70
2023-05-15T11:55:38.967Z,3.72
2023-05-15T11:56:45.042Z,3.40
2023-05-15T11:57:47.533Z,4.32
2023-05-15T11:58:50.755Z,3.13
2023-05-15T11:59:55.954Z,3.13
2023-05-15T12:00:58.072Z,5.43
2023-05-15T12:01:59.868Z,2.60
2023-05-15T12:03:03.720Z,3.20
2023-05-15T12:04:13.660Z,3.13
2023-05-15T12:05:15.638Z,2.95
2023-05-15T12:06:18.281Z,2.67
2023-05-15T12:07:20.111Z,2.60
2023-05-15T12:08:22.176Z,3.10
2023-05-15T12:09:27.438Z,2.72
2023-05-15T12:10:30.328Z,4.90
2023-05-15T12:11:32.325Z,3.13
2023-05-15T12:12:36.920Z,2.50
2023-05-15T12:13:38.748Z,3.53
2023-05-15T12:14:41.298Z,2.50
2023-05-15T12:15:45.358Z,2.55
2023-05-15T12:16:47.222Z,2.78
2023-05-15T12:17:49.675Z,3.17
2023-05-15T12:18:51.740Z,3.25
2023-05-15T12:19:56.038Z,3.17
2023-05-15T12:20:58.202Z,3.20
2023-05-15T12:22:00.023Z,3.05
2023-05-15T12:23:06.128Z,2.88
2023-05-15T12:24:08.462Z,2.90
2023-05-15T12:25:15.697Z,3.35
2023-05-15T12:26:17.838Z,3.15
2023-05-15T12:27:19.765Z,4.75
2023-05-15T12:28:22.307Z,3.13
2023-05-15T12:29:24.708Z,3.97
2023-05-15T12:30:26.957Z,4.30
2023-05-15T12:31:29.329Z,3.40
2023-05-15T12:32:36.306Z,4.05
2023-05-15T12:33:38.857Z,2.88
2023-05-15T12:34:41.066Z,4.60
2023-05-15T12:35:50.140Z,3.30
2023-05-15T12:36:51.969Z,2.97
2023-05-15T12:37:54.129Z,3.50
2023-05-15T12:38:56.109Z,4.45
2023-05-15T12:40:01.248Z,4.95
2023-05-15T12:41:03.514Z,3.75
2023-05-15T12:42:05.379Z,2.88
2023-05-15T12:43:08.109Z,6.65
2023-05-15T12:44:19.160Z,2.63
2023-05-15T12:45:22.483Z,3.30
2023-05-15T12:46:29.558Z,3.25
2023-05-15T12:47:31.517Z,3.03
2023-05-15T12:48:33.590Z,5.15
2023-05-15T12:49:38.478Z,3.53
2023-05-15T12:50:40.597Z,4.85
2023-05-15T12:51:43.350Z,4.25
2023-05-15T12:52:55.403Z,2.65
2023-05-15T12:53:59.965Z,3.60
2023-05-15T12:55:01.923Z,3.40
2023-05-15T12:56:04.849Z,5.82
2023-05-15T12:57:08.144Z,2.85
2023-05-15T12:58:12.937Z,3.55
2023-05-15T12:59:14.879Z,2.70
2023-05-15T13:00:17.288Z,3.03
2023-05-15T13:01:19.148Z,6.68
2023-05-15T13:02:23.206Z,4.20
2023-05-15T13:03:26.513Z,3.88
2023-05-15T13:04:28.444Z,2.72
2023-05-15T13:05:34.654Z,5.25
2023-05-15T13:06:46.352Z,5.07
2023-05-15T13:07:49.196Z,7.50
2023-05-15T13:08:51.062Z,5.75
2023-05-15T13:10:04.927Z,5.80
2023-05-15T13:11:12.965Z,5.20
2023-05-15T13:12:19.340Z,5.32
2023-05-15T13:13:21.519Z,4.47
2023-05-15T13:14:27.270Z,5.03
2023-05-15T13:15:38.167Z,5.88
2023-05-15T13:16:43.400Z,5.70
2023-05-15T13:17:45.707Z,6.70
2023-05-15T13:18:47.927Z,6.53
2023-05-15T13:19:49.803Z,6.25
2023-05-15T13:20:51.797Z,4.95
2023-05-15T13:21:54.005Z,5.18
2023-05-15T13:22:56.051Z,4.60
2023-05-15T13:23:57.907Z,5.40
2023-05-15T13:24:59.752Z,4.15
2023-05-15T13:26:01.563Z,4.80
2023-05-15T13:27:03.765Z,6.78
2023-05-15T13:28:07.217Z,4.80
2023-05-15T13:29:09.017Z,4.30
2023-05-15T13:30:11.281Z,6.18
2023-05-15T13:31:13.345Z,4.85
2023-05-15T13:32:15.164Z,3.70
2023-05-15T13:33:17.044Z,4.32
2023-05-15T13:34:18.838Z,3.72
2023-05-15T13:35:20.686Z,3.88
2023-05-15T13:36:22.507Z,2.53
2023-05-15T13:37:24.375Z,4.10
2023-05-15T13:38:26.227Z,4.70
2023-05-15T13:39:28.013Z,4.45
2023-05-15T13:40:31.238Z,6.28
2023-05-15T13:41:32.998Z,6.63
2023-05-15T13:42:34.813Z,2.65
2023-05-15T13:43:36.750Z,3.85
2023-05-15T13:44:38.612Z,3.92
2023-05-15T13:45:41.113Z,6.03
2023-05-15T13:46:43.364Z,3.63
2023-05-15T13:47:45.605Z,3.47
2023-05-15T13:48:47.436Z,5.63
2023-05-15T13:49:49.217Z,3.78
2023-05-15T13:50:51.198Z,3.67
2023-05-15T13:51:53.030Z,3.70
2023-05-15T13:52:54.845Z,4.72
2023-05-15T13:53:56.607Z,2.67
2023-05-15T13:54:58.604Z,3.17
2023-05-15T13:56:00.502Z,2.78
2023-05-15T13:57:02.320Z,4.80
2023-05-15T13:58:04.317Z,3.83
2023-05-15T13:59:06.089Z,2.75
2023-05-15T14:00:13.629Z,7.82
2023-05-15T14:01:15.627Z,5.22
2023-05-15T14:02:17.468Z,3.95
2023-05-15T14:03:19.375Z,4.38
2023-05-15T14:04:21.436Z,5.57
2023-05-15T14:05:23.240Z,6.18